REP weather

Siem Reap International Airport
Siem Reap, Siem Reab, Cambodia

Public forecast

Using degrees Celsius for public forecast. Weather courtesy of forecast.io.

METAR (pilot weather report)

Retrieved 2019/02/16 14:00 UTC (7 minutes ago):

VDSR 161400Z 00000KT 9000 FEW017 25/21 Q1010

TAF (pilot weather forecast)

Retrieved 2019/02/16 12:00 UTC (2 hours ago):

TAF VDSR 161100Z 1612/1706 18006KT 9999 SCT017